Time;durP1;ratioP1;P1;durP2;ratioP2;P2;SDS_P1;SDS_P2;PMS_P1;PMS_P2;Temp;Humidity;BMP_temperature;BMP_pressure;BME280_temperature;BME280_humidity;BME280_pressure;Samples;Min_cycle;Max_cycle;Signal;HPM_P1;HPM_P2
2024/02/11 00:01:08;;;;;;;133.93;35.53;;;;;;;7.77;100.00;94608.47;5040178;28;20415;-80
2024/02/11 00:03:34;;;;;;;108.90;30.52;;;;;;;7.76;100.00;94615.59;5042379;28;20399;-80
2024/02/11 00:06:04;;;;;;;97.43;26.17;;;;;;;7.76;100.00;94615.59;5042279;28;20395;-80
2024/02/11 00:08:30;;;;;;;77.93;23.87;;;;;;;7.76;100.00;94615.59;5042419;28;20418;-79
2024/02/11 00:10:56;;;;;;;69.43;20.13;;;;;;;7.76;100.00;94617.44;5043180;28;20395;-80
2024/02/11 00:13:24;;;;;;;64.30;18.07;;;;;;;7.76;100.00;94628.75;5043150;28;20423;-80
2024/02/11 00:15:50;;;;;;;84.20;21.33;;;;;;;7.77;100.00;94634.81;5051738;28;20399;-80
2024/02/11 00:18:21;;;;;;;102.05;26.85;;;;;;;7.76;100.00;94631.41;5052650;28;20414;-80
2024/02/11 00:20:47;;;;;;;88.20;23.55;;;;;;;7.75;100.00;94631.69;5025410;28;20441;-80
2024/02/11 00:23:14;;;;;;;92.97;22.90;;;;;;;7.74;100.00;94638.06;5045519;28;20478;-78
2024/02/11 00:25:40;;;;;;;77.70;19.80;;;;;;;7.74;100.00;94638.06;5048909;28;20404;-79
2024/02/11 00:28:08;;;;;;;138.35;34.85;;;;;;;7.72;100.00;94634.94;5045393;28;20425;-78
2024/02/11 00:30:38;;;;;;;151.45;36.42;;;;;;;7.71;100.00;94636.00;5039613;28;20431;-78
2024/02/11 00:33:04;;;;;;;130.53;37.90;;;;;;;7.68;100.00;94637.38;5039588;28;20449;-78
2024/02/11 00:35:30;;;;;;;138.60;37.17;;;;;;;7.68;100.00;94647.13;5038398;28;20466;-78
2024/02/11 00:38:00;;;;;;;109.00;31.30;;;;;;;7.67;100.00;94646.34;5038488;28;20402;-78
2024/02/11 00:40:26;;;;;;;100.90;28.07;;;;;;;7.68;100.00;94636.59;5044084;28;20422;-78
2024/02/11 00:42:52;;;;;;;85.70;25.50;;;;;;;7.69;100.00;94638.16;5051460;28;20399;-78
2024/02/11 00:45:18;;;;;;;64.53;19.73;;;;;;;7.70;100.00;94643.13;5051348;28;20402;-78
2024/02/11 00:47:47;;;;;;;70.90;19.88;;;;;;;7.70;100.00;94653.66;5052799;28;20410;-78
2024/02/11 00:50:15;;;;;;;57.03;17.27;;;;;;;7.70;100.00;94656.28;5047722;28;20462;-78
2024/02/11 00:52:42;;;;;;;59.55;18.25;;;;;;;7.71;100.00;94662.34;5039682;28;20399;-78
2024/02/11 00:55:09;;;;;;;59.05;16.90;;;;;;;7.70;100.00;94658.16;5039593;28;20407;-78
2024/02/11 00:57:36;;;;;;;50.95;15.93;;;;;;;7.70;100.00;94660.78;5039453;28;20435;-78
2024/02/11 01:00:05;;;;;;;53.83;16.98;;;;;;;7.68;100.00;94660.28;5040098;28;20399;-78
2024/02/11 01:02:31;;;;;;;82.20;20.63;;;;;;;7.67;100.00;94666.63;5040042;28;20387;-78
2024/02/11 01:04:58;;;;;;;55.92;17.33;;;;;;;7.64;100.00;94662.75;5036173;28;20468;-78
2024/02/11 01:07:24;;;;;;;54.15;16.67;;;;;;;7.64;100.00;94668.03;5036152;28;20496;-77
2024/02/11 01:09:51;;;;;;;52.13;14.45;;;;;;;7.65;100.00;94668.81;5036782;28;20430;-78
2024/02/11 01:12:17;;;;;;;74.68;18.30;;;;;;;7.65;100.00;94674.06;5037323;28;20460;-77
2024/02/11 01:14:43;;;;;;;59.50;16.73;;;;;;;7.63;100.00;94677.00;5037109;28;20387;-77
2024/02/11 01:17:09;;;;;;;56.70;15.85;;;;;;;7.62;100.00;94679.91;5036768;28;20780;-78
2024/02/11 01:19:35;;;;;;;61.67;16.57;;;;;;;7.60;100.00;94680.22;5036173;28;20726;-78
2024/02/11 01:22:03;;;;;;;57.40;16.02;;;;;;;7.60;100.00;94682.06;5036618;28;20433;-78
2024/02/11 01:24:29;;;;;;;48.42;13.75;;;;;;;7.60;100.00;94676.78;5037640;28;20498;-77
2024/02/11 01:26:56;;;;;;;48.40;15.38;;;;;;;7.60;100.00;94680.22;5037290;28;20419;-78
2024/02/11 01:29:23;;;;;;;43.88;13.68;;;;;;;7.59;100.00;94677.91;5037722;28;20395;-77
2024/02/11 01:31:49;;;;;;;49.83;14.45;;;;;;;7.59;100.00;94685.78;5042341;28;20453;-77
2024/02/11 01:34:15;;;;;;;51.40;14.85;;;;;;;7.58;100.00;94685.00;5034314;28;20442;-77
2024/02/11 01:36:41;;;;;;;51.85;14.50;;;;;;;7.60;100.00;94682.06;5034578;28;20434;-77
2024/02/11 01:39:09;;;;;;;46.95;14.77;;;;;;;7.59;100.00;94685.78;5035031;28;20755;-77
2024/02/11 01:41:37;;;;;;;42.17;13.38;;;;;;;7.58;100.00;94687.66;5035150;28;20811;-78
2024/02/11 01:44:03;;;;;;;44.72;13.52;;;;;;;7.58;100.00;94690.28;5035802;28;20392;-77
2024/02/11 01:46:29;;;;;;;77.88;17.40;;;;;;;7.58;100.00;94687.66;5035676;28;20439;-77
2024/02/11 01:49:02;;;;;;;59.30;14.77;;;;;;;7.57;100.00;94690.56;5036882;28;20399;-77
2024/02/11 01:51:29;;;;;;;67.87;15.87;;;;;;;7.57;100.00;94685.31;5036597;28;20506;-77
2024/02/11 01:53:56;;;;;;;64.47;15.30;;;;;;;7.57;100.00;94682.69;5037439;28;20445;-77
2024/02/11 01:56:25;;;;;;;66.40;17.23;;;;;;;7.56;100.00;94689.78;5032928;28;20946;-77
2024/02/11 01:58:51;;;;;;;47.67;13.50;;;;;;;7.56;100.00;94689.00;5032414;28;20493;-77
2024/02/11 02:01:18;;;;;;;58.70;15.23;;;;;;;7.55;100.00;94685.59;5032460;28;20545;-77
2024/02/11 02:03:47;;;;;;;68.07;15.32;;;;;;;7.56;100.00;94686.38;5032915;28;20399;-77
2024/02/11 02:06:13;;;;;;;65.88;17.30;;;;;;;7.55;100.00;94682.97;5032165;28;20944;-77
2024/02/11 02:08:40;;;;;;;70.60;18.15;;;;;;;7.54;100.00;94694.56;5033139;28;20391;-77
2024/02/11 02:11:06;;;;;;;59.67;16.02;;;;;;;7.52;100.00;94701.97;5033262;28;20432;-77
2024/02/11 02:13:33;;;;;;;49.95;14.07;;;;;;;7.54;100.00;94696.41;5033607;28;20734;-78
2024/02/11 02:16:00;;;;;;;57.42;15.02;;;;;;;7.54;100.00;94694.56;5036148;28;20399;-78
2024/02/11 02:18:28;;;;;;;58.10;16.35;;;;;;;7.55;100.00;94698.75;5036586;28;20421;-78
2024/02/11 02:20:54;;;;;;;80.28;18.02;;;;;;;7.56;100.00;94707.44;5035728;28;20413;-78
2024/02/11 02:23:22;;;;;;;52.72;15.23;;;;;;;7.55;100.00;94695.34;5036588;28;20499;-78
2024/02/11 02:25:49;;;;;;;59.07;15.53;;;;;;;7.58;100.00;94697.41;5036337;28;20430;-78
2024/02/11 02:28:15;;;;;;;54.30;13.65;;;;;;;7.58;100.00;94703.44;5035922;28;20410;-77
2024/02/11 02:30:41;;;;;;;63.33;18.40;;;;;;;7.59;100.00;94701.59;5036094;28;20406;-78
2024/02/11 02:33:07;;;;;;;49.15;14.23;;;;;;;7.58;100.00;94705.28;5035861;28;20486;-77
2024/02/11 02:35:33;;;;;;;50.53;14.07;;;;;;;7.58;100.00;94711.34;5034590;28;20457;-80
2024/02/11 02:38:00;;;;;;;45.17;12.48;;;;;;;7.60;100.00;94714.44;5035338;28;20409;-78
2024/02/11 02:40:28;;;;;;;35.67;10.20;;;;;;;7.60;100.00;94708.38;5035295;28;20402;-78
2024/02/11 02:42:56;;;;;;;27.17;9.00;;;;;;;7.61;100.00;94707.31;5036106;28;20445;-80
2024/02/11 02:45:23;;;;;;;33.20;9.55;;;;;;;7.61;100.00;94707.31;5035246;28;20409;-78
2024/02/11 02:47:49;;;;;;;55.80;14.13;;;;;;;7.60;100.00;94718.91;5036983;28;20447;-79
2024/02/11 02:50:15;;;;;;;39.38;10.82;;;;;;;7.58;100.00;94711.34;5038310;28;20399;-80
2024/02/11 02:52:43;;;;;;;44.03;12.88;;;;;;;7.58;100.00;94715.81;5037993;28;20410;-80
2024/02/11 02:55:09;;;;;;;45.03;12.80;;;;;;;7.58;100.00;94721.88;5037561;28;20495;-80
2024/02/11 02:57:37;;;;;;;48.70;12.90;;;;;;;7.59;100.00;94722.66;5038051;28;20399;-80
2024/02/11 03:00:05;;;;;;;60.40;15.80;;;;;;;7.60;100.00;94717.06;5037780;28;20872;-80
2024/02/11 03:02:31;;;;;;;100.18;24.35;;;;;;;7.60;100.00;94719.69;5037963;28;20402;-80
2024/02/11 03:04:58;;;;;;;71.45;19.60;;;;;;;7.61;100.00;94731.00;5037631;28;20402;-80
2024/02/11 03:07:24;;;;;;;66.35;19.23;;;;;;;7.62;100.00;94735.97;5038747;28;20903;-79
2024/02/11 03:09:50;;;;;;;78.82;21.40;;;;;;;7.64;100.00;94731.22;5042416;28;20811;-80
2024/02/11 03:12:17;;;;;;;50.53;16.33;;;;;;;7.65;100.00;94739.88;5042473;28;20416;-80
2024/02/11 03:14:44;;;;;;;54.40;16.65;;;;;;;7.63;100.00;94745.44;5043660;28;20768;-80
2024/02/11 03:17:11;;;;;;;38.53;12.50;;;;;;;7.55;100.00;94751.41;5049688;28;20494;-80
2024/02/11 03:19:37;;;;;;;21.37;7.17;;;;;;;7.42;100.00;94754.06;5052851;28;20395;-80
2024/02/11 03:22:03;;;;;;;12.25;4.85;;;;;;;7.31;100.00;94764.78;5045541;28;20410;-81
2024/02/11 03:24:29;;;;;;;11.60;3.50;;;;;;;7.16;100.00;94766.94;5044644;28;20391;-80
2024/02/11 03:26:56;;;;;;;11.38;2.90;;;;;;;7.03;100.00;94763.25;5040880;28;20422;-81
2024/02/11 03:29:22;;;;;;;4.88;2.28;;;;;;;6.89;100.00;94784.28;5041800;28;20408;-80
2024/02/11 03:31:54;;;;;;;3.47;1.80;;;;;;;6.78;100.00;94772.38;5041990;28;20406;-80
2024/02/11 03:34:20;;;;;;;2.50;1.60;;;;;;;6.71;100.00;94792.22;5041805;28;20776;-81
2024/02/11 03:36:46;;;;;;;1.50;1.40;;;;;;;6.54;100.00;94790.94;5042442;28;20403;-81
2024/02/11 03:39:12;;;;;;;1.58;1.30;;;;;;;6.47;100.00;94801.03;5042915;28;20486;-81
2024/02/11 03:41:39;;;;;;;1.27;1.15;;;;;;;6.39;100.00;94793.81;5042881;28;20395;-80
2024/02/11 03:44:06;;;;;;;1.10;1.10;;;;;;;6.38;100.00;94815.91;5043610;28;20395;-81
2024/02/11 03:46:32;;;;;;;1.25;1.15;;;;;;;6.32;100.00;94803.13;5043229;28;20410;-80
2024/02/11 03:49:01;;;;;;;1.30;1.20;;;;;;;6.25;100.00;94810.59;5042115;28;20422;-81
2024/02/11 03:51:28;;;;;;;1.40;1.10;;;;;;;6.20;100.00;94824.59;5041536;28;20469;-81
2024/02/11 03:53:56;;;;;;;1.40;1.30;;;;;;;6.16;100.00;94819.13;5041820;28;20399;-80
2024/02/11 03:56:28;;;;;;;1.17;1.10;;;;;;;6.12;100.00;94833.91;5041341;28;20391;-80
2024/02/11 03:58:54;;;;;;;1.33;1.23;;;;;;;6.07;100.00;94833.97;5041548;28;20459;-80
2024/02/11 04:01:21;;;;;;;1.15;1.15;;;;;;;6.07;100.00;94847.09;5041648;28;20403;-81
2024/02/11 04:03:47;;;;;;;1.58;1.30;;;;;;;6.04;100.00;94844.25;5041172;28;20437;-80
2024/02/11 04:06:16;;;;;;;1.30;1.20;;;;;;;6.03;100.00;94840.84;5041132;28;20399;-81
2024/02/11 04:08:43;;;;;;;1.30;1.20;;;;;;;6.06;100.00;94845.53;5041430;28;20419;-81
2024/02/11 04:11:10;;;;;;;1.13;1.13;;;;;;;6.03;100.00;94861.06;5040712;28;20395;-80
2024/02/11 04:13:36;;;;;;;1.40;1.30;;;;;;;5.97;100.00;94852.50;5040515;28;20406;-80
2024/02/11 04:16:15;;;;;;;3.80;1.30;;;;;;;5.95;100.00;94861.69;5041519;28;20888;-80
2024/02/11 04:18:42;;;;;;;1.40;1.30;;;;;;;5.89;100.00;94861.00;5040612;28;20406;-80
2024/02/11 04:21:10;;;;;;;2.50;1.30;;;;;;;5.85;100.00;94867.84;5041919;28;20490;-81
2024/02/11 04:23:38;;;;;;;1.40;1.30;;;;;;;5.86;100.00;94877.31;5042281;28;20745;-80
2024/02/11 04:26:10;;;;;;;2.67;1.30;;;;;;;5.77;100.00;94871.91;5042208;28;20403;-81
2024/02/11 04:28:36;;;;;;;3.60;1.50;;;;;;;5.78;100.00;94873.47;5041876;28;20848;-81
2024/02/11 04:31:09;;;;;;;2.00;1.50;;;;;;;5.74;100.00;94875.06;5041172;28;20395;-80
2024/02/11 04:33:36;;;;;;;3.10;1.50;;;;;;;5.73;100.00;94883.22;5042436;28;20395;-81
2024/02/11 04:36:04;;;;;;;3.15;1.60;;;;;;;5.67;100.00;94885.13;5045342;28;20395;-80
2024/02/11 04:38:31;;;;;;;3.53;1.70;;;;;;;5.64;100.00;94879.69;5045335;28;20399;-80
2024/02/11 04:41:00;;;;;;;4.82;1.70;;;;;;;5.59;100.00;94888.38;5046098;28;20431;-81
2024/02/11 04:43:27;;;;;;;2.63;1.65;;;;;;;5.57;100.00;94887.88;5045546;28;20399;-81
2024/02/11 04:45:53;;;;;;;2.17;1.70;;;;;;;5.57;100.00;94895.75;5045298;28;20482;-81
2024/02/11 04:48:24;;;;;;;3.25;1.70;;;;;;;5.55;100.00;94892.63;5045521;28;20499;-81
2024/02/11 04:50:51;;;;;;;3.13;1.80;;;;;;;5.52;100.00;94895.81;5046073;28;20798;-80
2024/02/11 04:53:18;;;;;;;2.88;1.75;;;;;;;5.48;100.00;94900.06;5044907;28;20400;-82
2024/02/11 04:55:50;;;;;;;2.25;1.70;;;;;;;5.48;100.00;94902.69;5046031;28;20403;-79
2024/02/11 04:58:23;;;;;;;1.90;1.67;;;;;;;5.48;100.00;94904.53;5046297;28;20410;-82
2024/02/11 05:00:54;;;;;;;2.80;1.80;;;;;;;5.51;100.00;94903.94;5045922;28;20419;-82
2024/02/11 05:03:20;;;;;;;2.03;1.60;;;;;;;5.48;100.00;94912.41;5045955;28;20387;-80
2024/02/11 05:05:47;;;;;;;2.05;1.67;;;;;;;5.45;100.00;94917.13;5044873;28;20422;-82
2024/02/11 05:08:16;;;;;;;3.17;1.90;;;;;;;5.42;100.00;94916.91;5046257;28;20780;-81
2024/02/11 05:10:44;;;;;;;4.20;2.00;;;;;;;5.35;100.00;94919.06;5046497;28;20884;-82
2024/02/11 05:13:11;;;;;;;3.80;1.88;;;;;;;5.38;100.00;94923.78;5046310;28;20405;-80
2024/02/11 05:15:42;;;;;;;1.97;1.67;;;;;;;5.33;100.00;94921.22;5047081;28;20475;-83
2024/02/11 05:18:11;;;;;;;3.40;1.80;;;;;;;5.31;100.00;94925.94;5046731;28;20410;-82
2024/02/11 05:20:38;;;;;;;2.80;1.70;;;;;;;5.25;100.00;94929.69;5028699;28;20939;-82
2024/02/11 05:23:09;;;;;;;3.70;2.05;;;;;;;5.29;100.00;94926.22;5046733;28;20455;-82
2024/02/11 05:25:36;;;;;;;4.38;2.00;;;;;;;5.24;100.00;94931.53;5047272;28;20395;-82
2024/02/11 05:28:05;;;;;;;2.80;1.90;;;;;;;5.28;100.00;94936.97;5047383;28;20419;-82
2024/02/11 05:30:33;;;;;;;2.22;1.90;;;;;;;5.24;100.00;94936.75;5046772;28;20559;-81
2024/02/11 05:33:02;;;;;;;3.63;1.83;;;;;;;5.21;100.00;94949.63;5047669;28;20419;-82
2024/02/11 05:35:30;;;;;;;3.43;2.10;;;;;;;5.22;100.00;94948.56;5047134;28;20399;-82
2024/02/11 05:37:59;;;;;;;2.85;2.00;;;;;;;5.18;100.00;94944.97;5047102;28;20478;-82
2024/02/11 05:40:26;;;;;;;3.20;2.00;;;;;;;5.18;100.00;94953.59;5047810;28;20446;-82
2024/02/11 05:42:53;;;;;;;4.13;2.17;;;;;;;5.20;100.00;94950.69;5049124;28;20411;-82
2024/02/11 05:45:23;;;;;;;3.38;2.28;;;;;;;5.15;100.00;94951.53;5048066;28;20395;-82
2024/02/11 05:47:50;;;;;;;4.10;2.35;;;;;;;5.15;100.00;94956.00;5050823;28;20832;-82
2024/02/11 05:50:18;;;;;;;5.05;2.60;;;;;;;5.09;100.00;94965.75;5047797;28;20395;-82
2024/02/11 05:52:44;;;;;;;4.97;2.33;;;;;;;5.07;100.00;94966.00;5044522;28;20403;-81
2024/02/11 05:55:16;;;;;;;6.38;2.50;;;;;;;5.04;100.00;94971.78;5045133;28;20807;-82
2024/02/11 05:57:42;;;;;;;4.55;2.45;;;;;;;5.01;100.00;94976.81;5045137;28;20391;-82
2024/02/11 06:00:13;;;;;;;3.25;2.42;;;;;;;4.94;100.00;94977.13;5045131;28;20410;-81
2024/02/11 06:02:41;;;;;;;4.33;2.47;;;;;;;4.97;100.00;94981.03;5045236;28;20462;-80
2024/02/11 06:05:12;;;;;;;4.78;2.63;;;;;;;4.97;100.00;94991.53;5042982;28;20418;-80
2024/02/11 06:07:40;;;;;;;4.88;2.40;;;;;;;4.94;100.00;94986.84;5041694;28;20414;-81
2024/02/11 06:10:08;;;;;;;3.58;2.50;;;;;;;4.96;100.00;94984.72;5041413;28;20930;-80
2024/02/11 06:12:38;;;;;;;3.50;2.70;;;;;;;4.94;100.00;94989.47;5042550;28;20530;-81
2024/02/11 06:15:07;;;;;;;4.65;2.75;;;;;;;4.91;100.00;94996.03;5042056;28;20391;-81
2024/02/11 06:17:34;;;;;;;6.28;3.20;;;;;;;4.95;100.00;94999.69;5042055;28;20430;-82
2024/02/11 06:20:00;;;;;;;6.57;3.30;;;;;;;4.90;100.00;95001.53;5042942;28;20395;-80
2024/02/11 06:22:27;;;;;;;5.77;3.17;;;;;;;4.88;100.00;95004.44;5042367;28;20772;-82
2024/02/11 06:24:56;;;;;;;7.00;3.10;;;;;;;4.86;100.00;95008.38;5041714;28;20752;-82
2024/02/11 06:27:22;;;;;;;6.40;3.30;;;;;;;4.84;100.00;95005.25;5042515;28;20415;-82
2024/02/11 06:29:48;;;;;;;7.45;2.83;;;;;;;4.82;100.00;95010.75;5042516;28;20403;-82
2024/02/11 06:32:14;;;;;;;6.00;2.95;;;;;;;4.82;100.00;95010.75;5042691;28;20417;-81
2024/02/11 06:34:40;;;;;;;7.37;3.40;;;;;;;4.87;100.00;95013.38;5039098;28;20398;-84
2024/02/11 06:37:06;;;;;;;4.88;2.88;;;;;;;4.85;100.00;95018.09;5037056;28;20402;-84
2024/02/11 06:39:33;;;;;;;6.17;3.10;;;;;;;4.85;100.00;95023.34;5036011;28;20482;-82
2024/02/11 06:42:05;;;;;;;7.90;3.40;;;;;;;4.89;100.00;95023.56;5035616;28;20407;-81
2024/02/11 06:44:31;;;;;;;9.23;3.88;;;;;;;4.88;100.00;95022.00;5037740;28;20406;-83
2024/02/11 06:46:58;;;;;;;8.52;3.72;;;;;;;4.86;100.00;95030.13;5036185;28;20419;-82
2024/02/11 06:49:25;;;;;;;9.45;4.35;;;;;;;4.82;100.00;95034.34;5034959;28;20441;-83
2024/02/11 06:51:52;;;;;;;10.65;4.53;;;;;;;4.75;100.00;95033.09;5034871;28;20490;-82
2024/02/11 06:54:21;;;;;;;9.23;3.97;;;;;;;4.71;100.00;95043.34;5035481;28;20825;-82
2024/02/11 06:56:49;;;;;;;8.05;3.78;;;;;;;4.73;100.00;95033.38;5036279;28;20407;-82
2024/02/11 06:59:17;;;;;;;11.83;4.17;;;;;;;4.76;100.00;95040.69;5036713;28;20395;-84
2024/02/11 07:01:43;;;;;;;12.32;4.80;;;;;;;4.77;100.00;95042.25;5035933;28;20407;-83
2024/02/11 07:04:12;;;;;;;14.57;4.78;;;;;;;4.70;100.00;95052.25;5037747;28;20397;-82
2024/02/11 07:06:45;;;;;;;11.60;4.40;;;;;;;4.70;100.00;95051.47;5037240;28;20791;-82
2024/02/11 07:09:12;;;;;;;16.98;5.22;;;;;;;4.76;100.00;95064.25;5036853;28;20453;-83
2024/02/11 07:11:38;;;;;;;14.93;5.00;;;;;;;4.73;100.00;95056.97;5035633;28;20402;-84
2024/02/11 07:14:06;;;;;;;18.13;5.80;;;;;;;4.75;100.00;95065.31;5035973;28;20399;-85
2024/02/11 07:16:33;;;;;;;14.23;5.10;;;;;;;4.75;100.00;95062.69;5035513;28;20724;-85
2024/02/11 07:19:00;;;;;;;19.42;5.63;;;;;;;4.77;100.00;95070.28;5038733;28;20400;-83
2024/02/11 07:21:27;;;;;;;18.08;5.78;;;;;;;4.74;100.00;95073.44;5038633;28;20395;-80
2024/02/11 07:23:56;;;;;;;19.02;6.05;;;;;;;4.76;100.00;95073.97;5048809;28;21198;-81
2024/02/11 07:26:22;;;;;;;15.00;5.75;;;;;;;4.71;100.00;95082.66;5048578;28;20412;-79
2024/02/11 07:28:49;;;;;;;15.82;5.40;;;;;;;4.74;100.00;95084.72;5048920;28;20430;-84
2024/02/11 07:31:15;;;;;;;14.60;5.45;;;;;;;4.72;100.00;95089.47;5045492;28;20426;-81
2024/02/11 07:33:43;;;;;;;18.38;5.95;;;;;;;4.76;100.00;95094.94;5044913;28;20397;-83
2024/02/11 07:36:10;;;;;;;18.83;6.20;;;;;;;4.78;100.00;95096.22;5044098;28;20467;-81
2024/02/11 07:38:36;;;;;;;17.27;6.47;;;;;;;4.80;100.00;95093.34;5039518;28;20468;-81
2024/02/11 07:41:05;;;;;;;21.80;6.97;;;;;;;4.79;100.00;95091.78;5041602;28;20467;-80
2024/02/11 07:43:32;;;;;;;22.00;6.90;;;;;;;4.74;100.00;95095.19;5044802;28;20434;-82
2024/02/11 07:46:00;;;;;;;19.52;6.28;;;;;;;4.73;100.00;95092.88;5045459;28;20425;-82
2024/02/11 07:48:26;;;;;;;21.60;6.95;;;;;;;4.75;100.00;95093.34;5040159;28;20442;-85
2024/02/11 07:50:53;;;;;;;22.05;7.80;;;;;;;4.79;100.00;95097.03;5040206;28;20403;-83
2024/02/11 07:53:20;;;;;;;23.02;6.85;;;;;;;4.82;100.00;95106.94;5042217;28;20403;-82
2024/02/11 07:55:46;;;;;;;24.33;7.85;;;;;;;4.83;100.00;95106.69;5043963;28;20411;-82
2024/02/11 07:58:13;;;;;;;30.65;8.10;;;;;;;4.87;100.00;95102.47;5046130;28;20403;-83
2024/02/11 08:00:39;;;;;;;33.28;9.05;;;;;;;4.91;100.00;95107.94;5044591;28;20403;-84
2024/02/11 08:03:10;;;;;;;43.25;10.65;;;;;;;4.91;100.00;95113.97;5044947;28;20506;-84
2024/02/11 08:05:37;;;;;;;30.58;10.18;;;;;;;4.92;100.00;95112.16;5044184;28;20488;-84
2024/02/11 08:08:05;;;;;;;42.67;11.63;;;;;;;4.91;100.00;95113.97;5043352;28;20425;-85
2024/02/11 08:10:32;;;;;;;43.78;11.52;;;;;;;4.94;100.00;95112.66;5054735;28;20393;-84
2024/02/11 08:12:58;;;;;;;38.25;11.43;;;;;;;5.01;100.00;95121.78;5054126;28;20445;-85
2024/02/11 08:15:25;;;;;;;55.08;12.90;;;;;;;5.03;100.00;95114.44;5059889;28;20433;-84
2024/02/11 08:17:51;;;;;;;57.85;13.65;;;;;;;5.04;100.00;95125.69;5055548;28;20474;-84
2024/02/11 08:20:18;;;;;;;56.38;15.75;;;;;;;5.06;100.00;95118.34;5049250;28;20418;-86
2024/02/11 08:22:45;;;;;;;52.33;13.88;;;;;;;5.16;100.00;95120.13;5040048;28;20423;-84
2024/02/11 08:25:13;;;;;;;51.25;14.23;;;;;;;5.28;100.00;95121.34;5040621;28;20893;-87
2024/02/11 08:27:41;;;;;;;58.97;15.20;;;;;;;5.39;100.00;95128.13;5066368;28;20781;-85
2024/02/11 08:30:12;;;;;;;71.07;16.08;;;;;;;5.44;100.00;95125.44;5064825;28;20400;-81
2024/02/11 08:32:38;;;;;;;63.63;16.30;;;;;;;5.53;100.00;95130.91;5066151;28;20523;-82
2024/02/11 08:35:05;;;;;;;46.23;13.80;;;;;;;5.62;100.00;95131.09;5066671;28;20420;-83
2024/02/11 08:37:32;;;;;;;75.70;17.00;;;;;;;5.69;100.00;95134.19;5064271;28;20459;-83
2024/02/11 08:39:58;;;;;;;50.15;14.50;;;;;;;5.74;100.00;95134.13;5064303;28;20428;-82
2024/02/11 08:42:27;;;;;;;74.57;18.10;;;;;;;5.69;100.00;95136.81;5065622;28;20744;-83
2024/02/11 08:44:54;;;;;;;69.07;16.88;;;;;;;5.76;100.00;95150.41;5045157;28;20426;-83
2024/02/11 08:47:20;;;;;;;65.78;16.40;;;;;;;5.77;100.00;95150.13;5045207;28;20411;-82
2024/02/11 08:49:47;;;;;;;63.70;15.70;;;;;;;5.78;100.00;95153.53;5050370;28;20457;-81
2024/02/11 08:52:14;;;;;;;63.40;15.98;;;;;;;5.82;100.00;95159.81;5043852;28;20487;-83
2024/02/11 08:54:41;;;;;;;64.57;16.52;;;;;;;5.84;100.00;95163.72;5043643;28;20395;-81
2024/02/11 08:57:09;;;;;;;62.85;16.00;;;;;;;5.89;100.00;95162.91;5042851;28;20884;-80
2024/02/11 08:59:38;;;;;;;54.45;14.60;;;;;;;5.94;100.00;95160.25;5039843;28;20853;-82
2024/02/11 09:02:05;;;;;;;72.20;17.83;;;;;;;5.91;100.00;95163.44;5040282;28;20902;-80
2024/02/11 09:04:31;;;;;;;62.60;16.73;;;;;;;5.89;100.00;95165.53;5041379;28;20498;-82
2024/02/11 09:06:58;;;;;;;66.18;17.17;;;;;;;5.94;100.00;95167.38;5044102;28;20397;-81
2024/02/11 09:09:29;;;;;;;50.97;13.93;;;;;;;6.03;100.00;95165.69;5048778;28;20759;-79
2024/02/11 09:11:56;;;;;;;72.50;16.20;;;;;;;6.09;100.00;95162.75;5052201;28;20484;-80
2024/02/11 09:14:24;;;;;;;51.08;14.65;;;;;;;6.19;100.00;95172.38;5055069;28;20749;-82
2024/02/11 09:16:52;;;;;;;43.97;12.52;;;;;;;6.30;100.00;95167.81;5048011;28;20939;-79
2024/02/11 09:19:18;;;;;;;44.13;13.13;;;;;;;6.36;100.00;95167.47;5058622;28;21125;-80
2024/02/11 09:21:44;;;;;;;60.78;15.00;;;;;;;6.37;100.00;95169.06;5053641;28;20407;-80
2024/02/11 09:24:10;;;;;;;45.92;12.93;;;;;;;6.44;100.00;95163.47;5055769;28;20402;-80
2024/02/11 09:26:37;;;;;;;50.67;14.23;;;;;;;6.43;100.00;95175.81;5057414;28;20394;-79
2024/02/11 09:29:05;;;;;;;58.25;14.75;;;;;;;6.44;100.00;95174.75;5050855;28;20915;-81
2024/02/11 09:31:31;;;;;;;55.60;14.00;;;;;;;6.45;100.00;95186.84;5051821;28;20393;-80
2024/02/11 09:33:59;;;;;;;31.50;10.18;;;;;;;6.50;100.00;95186.78;5051239;28;20426;-80
2024/02/11 09:36:25;;;;;;;45.92;11.52;;;;;;;6.53;100.00;95180.97;5051852;28;20438;-80
2024/02/11 09:38:51;;;;;;;31.80;9.48;;;;;;;6.57;100.00;95191.72;5057098;28;20400;-79
2024/02/11 09:41:17;;;;;;;46.47;11.98;;;;;;;6.58;100.00;95194.06;5059782;28;20417;-80
2024/02/11 09:43:46;;;;;;;49.00;13.32;;;;;;;6.53;100.00;95186.25;5059559;28;20400;-79
2024/02/11 09:46:16;;;;;;;43.20;11.93;;;;;;;6.55;100.00;95188.56;5058612;28;20417;-80
2024/02/11 09:48:44;;;;;;;32.08;10.43;;;;;;;6.59;100.00;95185.13;5050631;28;20453;-80
2024/02/11 09:51:12;;;;;;;44.77;11.93;;;;;;;6.66;100.00;95186.63;5041171;28;20443;-80
2024/02/11 09:53:42;;;;;;;37.90;10.70;;;;;;;6.78;100.00;95195.69;5040906;28;20474;-80
2024/02/11 09:56:08;;;;;;;28.23;9.97;;;;;;;6.87;100.00;95194.00;5042398;28;20948;-79
2024/02/11 09:58:35;;;;;;;27.98;9.45;;;;;;;6.92;100.00;95201.03;5039733;28;20957;-80
2024/02/11 10:01:02;;;;;;;27.45;8.93;;;;;;;6.92;100.00;95204.44;5039814;28;20399;-80
2024/02/11 10:03:29;;;;;;;29.40;9.05;;;;;;;6.96;100.00;95209.94;5042199;28;20433;-80
2024/02/11 10:05:58;;;;;;;26.65;8.77;;;;;;;7.01;100.00;95212.50;5042000;28;20398;-80
2024/02/11 10:08:25;;;;;;;22.42;8.30;;;;;;;7.13;100.00;95207.66;5040088;28;20553;-80
2024/02/11 10:10:52;;;;;;;33.78;10.10;;;;;;;7.13;100.00;95206.84;5034862;28;20585;-79
2024/02/11 10:13:19;;;;;;;24.93;8.27;;;;;;;7.36;100.00;95217.34;5028178;28;20400;-77
2024/02/11 10:15:46;;;;;;;21.30;8.50;;;;;;;7.62;100.00;95225.66;5034840;28;20453;-76
2024/02/11 10:18:12;;;;;;;16.53;7.00;;;;;;;7.73;100.00;95221.84;5033583;28;20415;-79
2024/02/11 10:20:38;;;;;;;15.00;6.95;;;;;;;7.84;100.00;95219.81;5037294;28;20406;-80
2024/02/11 10:23:05;;;;;;;16.13;6.30;;;;;;;7.96;100.00;95227.31;5038751;28;20415;-82
2024/02/11 10:25:33;;;;;;;19.10;6.75;;;;;;;8.04;100.00;95221.38;5034012;28;20904;-83
2024/02/11 10:28:00;;;;;;;8.95;5.10;;;;;;;8.18;100.00;95224.06;5033565;28;20466;-82
2024/02/11 10:30:27;;;;;;;9.65;5.55;;;;;;;8.28;100.00;95229.16;5036740;28;20411;-82
2024/02/11 10:32:58;;;;;;;7.68;4.60;;;;;;;8.38;100.00;95229.81;5033263;28;20401;-81
2024/02/11 10:35:26;;;;;;;9.23;5.27;;;;;;;8.42;100.00;95224.75;5031987;28;20437;-79
2024/02/11 10:37:52;;;;;;;13.98;6.07;;;;;;;8.45;100.00;95232.06;5036615;28;20418;-79
2024/02/11 10:40:19;;;;;;;12.57;5.75;;;;;;;8.42;100.00;95235.28;5037785;28;20442;-80
2024/02/11 10:42:50;;;;;;;7.85;4.75;;;;;;;8.46;100.00;95231.00;5040075;28;20411;-81
2024/02/11 10:45:16;;;;;;;11.88;4.95;;;;;;;8.49;100.00;95240.97;5034253;28;20417;-80
2024/02/11 10:47:42;;;;;;;5.40;4.03;;;;;;;8.52;100.00;95243.00;5039294;28;20415;-79
2024/02/11 10:50:12;;;;;;;5.82;3.75;;;;;;;8.71;100.00;95241.09;5044920;28;20411;-80
2024/02/11 10:52:42;;;;;;;8.68;4.82;;;;;;;9.03;100.00;95250.78;5045385;28;20497;-79
2024/02/11 10:55:11;;;;;;;9.75;4.25;;;;;;;9.08;100.00;95249.94;5041038;28;20411;-80
2024/02/11 10:57:48;;;;;;;9.35;4.20;;;;;;;9.08;100.00;95253.34;5037639;28;20406;-80
2024/02/11 11:00:20;;;;;;;7.60;4.30;;;;;;;8.91;100.00;95253.13;5039093;28;20419;-81
2024/02/11 11:02:49;;;;;;;8.82;4.15;;;;;;;8.62;100.00;95249.97;5037009;28;20792;-80
2024/02/11 11:05:17;;;;;;;7.75;4.28;;;;;;;8.48;100.00;95250.75;5039757;28;20399;-80
2024/02/11 11:07:49;;;;;;;12.13;5.22;;;;;;;8.20;100.00;95246.41;5040875;28;20415;-81
2024/02/11 11:10:16;;;;;;;11.63;4.88;;;;;;;8.06;100.00;95250.84;5042483;28;20876;-82
2024/02/11 11:12:47;;;;;;;10.23;4.65;;;;;;;7.97;100.00;95260.47;5054072;28;20403;-81
2024/02/11 11:15:20;;;;;;;9.17;4.73;;;;;;;7.83;100.00;95263.03;5044889;28;20401;-80
2024/02/11 11:17:48;;;;;;;8.48;4.57;;;;;;;7.81;100.00;95253.88;5042150;28;20915;-80
2024/02/11 11:20:15;;;;;;;8.32;4.35;;;;;;;7.83;100.00;95255.13;5050621;28;20942;-79
2024/02/11 11:22:48;;;;;;;11.05;4.60;;;;;;;7.94;100.00;95250.50;5049878;28;20395;-79
2024/02/11 11:25:14;;;;;;;7.72;4.40;;;;;;;8.16;100.00;95248.84;5044467;28;20770;-79